Terminal Aerodrome Forecast
Issued by NWS Charleston, WV

Home | Current Version | Previous Version | Text Only | Print | Product List | Glossary On
Versions: 1 2 3 4 5 6 7 8 9 10 11 12 13 14 15 16 17 18 19 20 21 22 23 24 25 26
087
FTUS41 KRLX 241132
TAFPKB
TAF
KPKB 241132Z 2412/2512 29004KT 6SM -SHRA OVC016
     FM241400 28005KT P6SM OVC010
     FM241600 28007KT P6SM OVC016
     FM250200 26006KT P6SM BKN025
     FM250600 VRB03KT P6SM BKN050
     FM251100 18004KT P6SM SCT140=

USA.gov is the U.S. government's official web portal to all federal, state and local government web resources and services.